Time;durP1;ratioP1;P1;durP2;ratioP2;P2;SDS_P1;SDS_P2;PMS_P1;PMS_P2;Temp;Humidity;BMP_temperature;BMP_pressure;BME280_temperature;BME280_humidity;BME280_pressure;Samples;Min_cycle;Max_cycle;Signal;HPM_P1;HPM_P2
2022/01/15 00:00:58;;;;;;;27.85;7.40;;;;;;;;;;4995336;28;20402;-60
2022/01/15 00:03:24;;;;;;;23.52;7.25;;;;;;;;;;5014103;28;20042;-60
2022/01/15 00:05:50;;;;;;;18.58;7.10;;;6.60;99.90;;;;;;5007451;28;20088;-59
2022/01/15 00:08:15;;;;;;;23.13;7.32;;;6.80;99.90;;;;;;5012367;28;20042;-59
2022/01/15 00:10:41;;;;;;;24.92;8.07;;;6.90;99.90;;;;;;5013191;28;20046;-59
2022/01/15 00:13:18;;;;;;;19.00;6.47;;;7.00;99.90;;;;;;5013582;28;20038;-58
2022/01/15 00:15:49;;;;;;;18.55;7.07;;;6.90;99.90;;;;;;5013963;28;20042;-59
2022/01/15 00:18:17;;;;;;;24.23;7.68;;;;;;;;;;5012129;28;20056;-57
2022/01/15 00:20:43;;;;;;;21.35;7.85;;;;;;;;;;5012845;28;20106;-59
2022/01/15 00:23:09;;;;;;;18.02;7.00;;;;;;;;;;5013153;28;20472;-60
2022/01/15 00:25:35;;;;;;;20.40;7.45;;;7.00;99.90;;;;;;5013197;28;20096;-60
2022/01/15 00:28:02;;;;;;;17.77;6.10;;;6.90;99.90;;;;;;4992617;28;20521;-57
2022/01/15 00:30:28;;;;;;;13.77;5.63;;;;;;;;;;4993405;28;20054;-58
2022/01/15 00:32:54;;;;;;;13.85;5.15;;;;;;;;;;4993604;28;20034;-60
2022/01/15 00:35:21;;;;;;;15.35;6.03;;;7.30;99.90;;;;;;4993630;28;20092;-60
2022/01/15 00:37:48;;;;;;;17.00;5.65;;;;;;;;;;4994052;28;20039;-59
2022/01/15 00:40:15;;;;;;;13.23;4.70;;;;;;;;;;4992074;28;20050;-59
2022/01/15 00:42:41;;;;;;;17.50;6.05;;;;;;;;;;4993406;28;20046;-60
2022/01/15 00:45:11;;;;;;;14.38;5.45;;;;;;;;;;4992578;28;20042;-58
2022/01/15 00:47:37;;;;;;;11.25;4.13;;;;;;;;;;4993298;28;20049;-59
2022/01/15 00:50:06;;;;;;;13.25;4.75;;;6.20;99.90;;;;;;4993806;28;20069;-60
2022/01/15 00:52:32;;;;;;;12.50;4.28;;;;;;;;;;4991097;28;20045;-58
2022/01/15 00:54:58;;;;;;;11.70;4.93;;;;;;;;;;4993691;28;20038;-59
2022/01/15 00:57:24;;;;;;;13.73;4.88;;;;;;;;;;4993312;28;20473;-58
2022/01/15 00:59:50;;;;;;;12.02;4.28;;;;;;;;;;4993079;28;20041;-59
2022/01/15 01:02:20;;;;;;;12.32;4.68;;;;;;;;;;4991536;28;20034;-59
2022/01/15 01:04:46;;;;;;;14.38;5.30;;;6.70;99.90;;;;;;4992526;28;20402;-60
2022/01/15 01:07:12;;;;;;;23.13;7.00;;;6.60;99.90;;;;;;4992310;28;20035;-58
2022/01/15 01:20:50;;;;;;;43.83;12.05;;;;;;;;;;4991587;28;20047;-57
2022/01/15 01:23:16;;;;;;;32.60;10.05;;;6.60;99.90;;;;;;4993330;28;20042;-59
2022/01/15 01:25:46;;;;;;;45.47;11.93;;;;;;;;;;4992995;28;20041;-60
2022/01/15 01:28:29;;;;;;;29.25;8.48;;;;;;;;;;4992702;28;20046;-60
2022/01/15 01:31:09;;;;;;;39.78;10.55;;;;;;;;;;4992150;28;20177;-58
2022/01/15 01:33:39;;;;;;;25.73;9.23;;;;;;;;;;4992653;28;20042;-59
2022/01/15 01:41:18;;;;;;;23.52;8.35;;;;;;;;;;5056678;23;20053;-92
2022/01/15 01:43:52;;;;;;;26.48;8.18;;;;;;;;;;5034398;28;20525;-93
2022/01/15 01:48:52;;;;;;;17.33;6.47;;;;;;;;;;5051811;28;20045;-93
2022/01/15 01:51:21;;;;;;;18.27;6.82;;;;;;;;;;5050992;28;20132;-93
2022/01/15 01:53:48;;;;;;;15.65;5.90;;;;;;;;;;5035010;28;20037;-93
2022/01/15 01:56:14;;;;;;;22.88;6.20;;;;;;;;;;5034805;28;20124;-94
2022/01/15 01:58:40;;;;;;;24.88;7.25;;;;;;;;;;5035318;28;20482;-93
2022/01/15 02:01:06;;;;;;;19.85;6.13;;;;;;;;;;5051392;28;20040;-93
2022/01/15 02:03:32;;;;;;;21.40;7.28;;;;;;;;;;5034894;28;20037;-92
2022/01/15 02:05:58;;;;;;;16.50;6.30;;;;;;;;;;5035141;28;20410;-93
2022/01/15 02:08:25;;;;;;;21.85;6.50;;;;;;;;;;5034766;28;20049;-93
2022/01/15 02:10:51;;;;;;;18.73;7.03;;;;;;;;;;5034020;28;20048;-93
2022/01/15 02:13:19;;;;;;;16.42;5.70;;;;;;;;;;5035090;28;20043;-93
2022/01/15 02:15:45;;;;;;;19.10;5.75;;;;;;;;;;5034263;28;20037;-93
2022/01/15 02:18:11;;;;;;;15.25;5.10;;;;;;;;;;5034605;28;20036;-93
2022/01/15 02:26:02;;;;;;;19.05;6.00;;;;;;;;;;5051547;28;20056;-93
2022/01/15 02:28:31;;;;;;;12.77;5.30;;;;;;;;;;5034820;28;20049;-93
2022/01/15 02:31:00;;;;;;;19.88;6.20;;;;;;;;;;5034187;28;20170;-93
2022/01/15 02:33:26;;;;;;;15.13;5.88;;;;;;;;;;5034554;28;20041;-93
2022/01/15 02:35:53;;;;;;;11.90;5.18;;;;;;;;;;5051056;28;20073;-93
2022/01/15 02:38:19;;;;;;;14.15;5.82;;;;;;;;;;5034480;28;20041;-93
2022/01/15 02:40:48;;;;;;;15.10;5.07;;;;;;;;;;5032651;28;20049;-94
2022/01/15 02:43:19;;;;;;;15.20;5.65;;;;;;;;;;5031706;28;20056;-94
2022/01/15 02:46:19;;;;;;;13.52;5.35;;;;;;;;;;5034078;28;20048;-94
2022/01/15 02:48:55;;;;;;;19.33;6.95;;;;;;;;;;5027238;28;20040;-93
2022/01/15 02:51:22;;;;;;;24.40;7.10;;;;;;;;;;5049701;28;20053;-93
2022/01/15 02:53:54;;;;;;;19.25;6.38;;;;;;;;;;5051398;28;20121;-94
2022/01/15 02:56:21;;;;;;;14.98;6.45;;;;;;;;;;5031699;28;20517;-94
2022/01/15 02:58:47;;;;;;;12.95;6.15;;;;;;;;;;5033005;28;20506;-93
2022/01/15 03:01:13;;;;;;;16.50;6.00;;;;;;;;;;5033043;28;20554;-94
2022/01/15 03:03:39;;;;;;;14.45;5.60;;;;;;;;;;5033121;28;20036;-93
2022/01/15 03:06:09;;;;;;;13.73;5.25;;;;;;;;;;5050685;28;20052;-93
2022/01/15 03:08:38;;;;;;;16.25;5.80;;;;;;;;;;5033801;28;20047;-94
2022/01/15 03:11:04;;;;;;;14.45;4.88;;;;;;;;;;5033897;28;20383;-93
2022/01/15 03:13:30;;;;;;;15.77;5.35;;;;;;;;;;5050408;28;20063;-94
2022/01/15 03:15:59;;;;;;;16.20;6.15;;;;;;;;;;5034082;28;20040;-94
2022/01/15 03:18:25;;;;;;;16.00;6.03;;;;;;;;;;5034006;28;20037;-94
2022/01/15 03:20:51;;;;;;;16.08;6.50;;;;;;;;;;5049890;28;20036;-93
2022/01/15 03:23:17;;;;;;;11.57;5.25;;;;;;;;;;5034434;28;20044;-94
2022/01/15 03:25:46;;;;;;;14.35;5.40;;;;;;;;;;5050239;28;20079;-94
2022/01/15 03:28:12;;;;;;;15.95;5.68;;;;;;;;;;5054393;28;20079;-93
2022/01/15 03:30:39;;;;;;;14.05;5.03;;;;;;;;;;5037120;28;20418;-94
2022/01/15 03:33:05;;;;;;;13.57;4.47;;;;;;;;;;5036804;28;20498;-94
2022/01/15 03:35:32;;;;;;;13.50;5.40;;;;;;;;;;5054659;28;20075;-94
2022/01/15 03:37:58;;;;;;;14.18;4.85;;;;;;;;;;5054341;28;20124;-94
2022/01/15 03:40:27;;;;;;;13.45;4.43;;;;;;;;;;5037519;28;20040;-93
2022/01/15 03:42:53;;;;;;;13.57;4.10;;;;;;;;;;5036724;28;20041;-93
2022/01/15 03:45:19;;;;;;;11.70;4.07;;;;;;;;;;5037824;28;20129;-94
2022/01/15 03:47:46;;;;;;;14.25;4.22;;;;;;;;;;5053672;28;20052;-94
2022/01/15 03:50:15;;;;;;;10.80;4.10;;;;;;;;;;5036449;28;20124;-94
2022/01/15 03:52:41;;;;;;;12.48;5.18;;;;;;;;;;5037698;28;20128;-94
2022/01/15 03:55:08;;;;;;;9.82;4.30;;;;;;;;;;5037314;28;20449;-94
2022/01/15 03:57:40;;;;;;;13.75;4.82;;;;;;;;;;5036869;28;20048;-94
2022/01/15 04:00:27;;;;;;;16.38;5.70;;;;;;;;;;5037224;28;20091;-94
2022/01/15 04:02:54;;;;;;;12.25;5.25;;;;;;;;;;5054297;28;20127;-95
2022/01/15 04:05:20;;;;;;;14.85;5.45;;;;;;;;;;5053500;28;20040;-93
2022/01/15 04:07:46;;;;;;;14.85;5.05;;;;;;;;;;5037081;28;20106;-94
2022/01/15 04:10:13;;;;;;;14.85;5.88;;;;;;;;;;5037214;28;20045;-94
2022/01/15 04:12:42;;;;;;;14.30;5.90;;;;;;;;;;5037169;28;20040;-94
2022/01/15 04:15:16;;;;;;;13.18;5.25;;;;;;;;;;5037394;28;20033;-94
2022/01/15 04:17:42;;;;;;;13.55;6.07;;;;;;;;;;5037213;28;20086;-94
2022/01/15 04:20:11;;;;;;;16.40;6.93;;;;;;;;;;5036630;28;20049;-94
2022/01/15 04:22:37;;;;;;;20.35;6.90;;;;;;;;;;5036457;28;20040;-94
2022/01/15 04:25:06;;;;;;;19.60;7.70;;;;;;;;;;5036751;28;20089;-94
2022/01/15 04:27:33;;;;;;;22.90;8.07;;;;;;;;;;5036064;28;20053;-93
2022/01/15 04:30:03;;;;;;;14.40;6.13;;;;;;;;;;5053119;28;20402;-94
2022/01/15 04:32:29;;;;;;;15.93;7.07;;;;;;;;;;5036403;28;20100;-94
2022/01/15 04:34:55;;;;;;;14.27;6.38;;;;;;;;;;5036384;28;20040;-94
2022/01/15 04:37:23;;;;;;;12.88;5.43;;;;;;;;;;5053558;28;20040;-93
2022/01/15 04:39:49;;;;;;;12.57;5.43;;;;;;;;;;5035223;28;20052;-93
2022/01/15 04:42:16;;;;;;;11.85;5.40;;;;;;;;;;5036398;28;20091;-94
2022/01/15 04:44:42;;;;;;;17.02;7.53;;;;;;;;;;5036504;28;20053;-93
2022/01/15 04:47:08;;;;;;;21.45;8.20;;;;;;;;;;5036019;28;20045;-93
2022/01/15 04:49:34;;;;;;;25.42;9.40;;;;;;;;;;5036461;28;20044;-93
2022/01/15 04:52:01;;;;;;;25.45;9.43;;;;;;;;;;5052426;28;20041;-93
2022/01/15 04:54:27;;;;;;;21.15;8.30;;;;;;;;;;5036739;28;20037;-93
2022/01/15 04:56:53;;;;;;;18.38;8.15;;;;;;;;;;5036809;28;20390;-93
2022/01/15 04:59:20;;;;;;;18.00;6.43;;;;;;;;;;5053168;28;20037;-94
2022/01/15 05:01:49;;;;;;;8.85;4.05;;;;;;;;;;5035934;28;20059;-93
2022/01/15 05:04:15;;;;;;;10.13;3.78;;;;;;;;;;5036618;28;20048;-93
2022/01/15 05:06:41;;;;;;;10.63;4.25;;;;;;;;;;5036260;28;20040;-94
2022/01/15 05:09:07;;;;;;;9.43;3.97;;;;;;;;;;5035876;28;20083;-93
2022/01/15 05:11:45;;;;;;;8.77;4.30;;;;;;;;;;5035671;28;20091;-93
2022/01/15 05:14:14;;;;;;;9.50;3.72;;;;;;;;;;5035531;28;20491;-94
2022/01/15 05:16:43;;;;;;;9.30;3.70;;;;;;;;;;5035762;28;20033;-94
2022/01/15 05:19:09;;;;;;;10.65;4.63;;;;;;;;;;5052622;28;20052;-94
2022/01/15 05:21:35;;;;;;;8.77;3.22;;;;;;;;;;5035200;28;20055;-94
2022/01/15 05:24:02;;;;;;;6.72;2.42;;;;;;;;;;5036163;28;20068;-94
2022/01/15 05:26:28;;;;;;;7.22;2.90;;;;;;;;;;5035390;28;20048;-93
2022/01/15 05:28:54;;;;;;;7.65;2.60;;;;;;;;;;5035663;28;20140;-94
2022/01/15 05:31:20;;;;;;;6.82;2.78;;;;;;;;;;5035341;28;20045;-93
2022/01/15 05:33:46;;;;;;;7.03;3.05;;;;;;;;;;5035641;28;20059;-93
2022/01/15 05:36:12;;;;;;;7.88;3.20;;;;;;;;;;5035944;28;20148;-94
2022/01/15 05:38:38;;;;;;;6.65;2.97;;;;;;;;;;5035149;28;20037;-94
2022/01/15 05:41:04;;;;;;;8.00;2.92;;;;;;;;;;5035095;28;20045;-94
2022/01/15 05:43:33;;;;;;;8.98;3.60;;;;;;;;;;5035234;28;20393;-93
2022/01/15 05:45:59;;;;;;;7.97;3.10;;;;;;;;;;5051983;28;20045;-94
2022/01/15 05:48:28;;;;;;;7.10;2.25;;;;;;;;;;5051642;28;20109;-93
2022/01/15 05:50:54;;;;;;;7.30;2.15;;;;;;;;;;5034008;28;20098;-93
2022/01/15 05:53:20;;;;;;;7.90;2.45;;;;;;;;;;5035046;28;20124;-94
2022/01/15 05:55:46;;;;;;;7.18;2.92;;;;;;;;;;5034927;28;20080;-93
2022/01/15 05:58:12;;;;;;;6.97;2.70;;;;;;;;;;5035443;28;20523;-94
2022/01/15 06:00:38;;;;;;;8.50;2.75;;;;;;;;;;5034513;28;20131;-94
2022/01/15 06:03:04;;;;;;;7.72;3.50;;;;;;;;;;5035125;28;20051;-93
2022/01/15 06:05:30;;;;;;;10.30;4.10;;;;;;;;;;5034825;28;20521;-94
2022/01/15 06:07:56;;;;;;;11.77;5.10;;;;;;;;;;5035186;28;20118;-93
2022/01/15 06:10:22;;;;;;;9.57;4.25;;;;;;;;;;5034877;28;20514;-94
2022/01/15 06:12:48;;;;;;;11.35;4.85;;;;;;;;;;5051073;28;20483;-93
2022/01/15 06:15:15;;;;;;;10.80;4.85;;;;;;;;;;5035053;28;20049;-93
2022/01/15 06:17:42;;;;;;;9.85;4.38;;;;;;;;;;5050875;28;20091;-93
2022/01/15 06:20:09;;;;;;;11.73;4.30;;;;;;;;;;5051800;28;20047;-93
2022/01/15 06:22:35;;;;;;;9.63;4.05;;;;;;;;;;5050926;28;20059;-93
2022/01/15 06:25:03;;;;;;;8.63;3.95;;;;;;;;;;5034543;28;20086;-93
2022/01/15 06:27:29;;;;;;;10.85;3.55;;;;;;;;;;5034820;28;20127;-94
2022/01/15 06:29:58;;;;;;;8.05;2.67;;;;;;;;;;5034501;28;20037;-93
2022/01/15 06:32:28;;;;;;;7.25;2.90;;;;;;;;;;5034381;28;20087;-93
2022/01/15 06:34:54;;;;;;;8.13;3.25;;;;;;;;;;5051023;28;20420;-93
2022/01/15 06:37:21;;;;;;;6.05;2.30;;;;;;;;;;5034871;28;20136;-93
2022/01/15 06:39:47;;;;;;;6.60;2.53;;;;;;;;;;5034753;28;20041;-93
2022/01/15 06:42:16;;;;;;;5.80;2.42;;;;;;;;;;5035301;28;20041;-93
2022/01/15 06:44:42;;;;;;;8.50;2.13;;;;;;;;;;5035304;28;20049;-93
2022/01/15 06:47:08;;;;;;;7.72;2.60;;;;;;;;;;5035246;28;20379;-94
2022/01/15 06:49:34;;;;;;;8.65;3.42;;;;;;;;;;5036648;28;20041;-93
2022/01/15 06:52:01;;;;;;;6.22;2.00;;;;;;;;;;5036829;28;20131;-93
2022/01/15 06:54:27;;;;;;;5.82;2.28;;;;;;;;;;5038843;28;20049;-93
2022/01/15 06:56:53;;;;;;;5.30;2.03;;;;;;;;;;5056409;28;20123;-93
2022/01/15 06:59:19;;;;;;;5.63;1.67;;;;;;;;;;5047637;28;20028;-94
2022/01/15 07:01:45;;;;;;;4.00;1.50;;;;;;;;;;5035143;28;20045;-94
2022/01/15 07:04:11;;;;;;;4.43;1.42;;;;;;;;;;5034282;28;20086;-93
2022/01/15 07:06:37;;;;;;;5.90;2.15;;;;;;;;;;5033661;28;20036;-93
2022/01/15 07:09:03;;;;;;;5.75;2.33;;;;;;;;;;5050424;28;20072;-93
2022/01/15 07:11:29;;;;;;;5.15;1.60;;;;;;;;;;5033534;28;20041;-93
2022/01/15 07:13:57;;;;;;;4.90;1.77;;;;;;;;;;5034132;28;20041;-94
2022/01/15 07:16:23;;;;;;;5.80;1.98;;;;;;;;;;5033647;28;20037;-93
2022/01/15 07:18:49;;;;;;;5.88;2.28;;;;;;;;;;5050393;28;20091;-94
2022/01/15 07:21:15;;;;;;;5.78;2.15;;;;;;;;;;5049305;28;20044;-93
2022/01/15 07:23:42;;;;;;;6.10;2.33;;;;;;;;;;5017677;28;20135;-94
2022/01/15 07:26:09;;;;;;;6.65;2.35;;;;;;;;;;5033767;28;20084;-93
2022/01/15 07:28:35;;;;;;;6.60;2.50;;;;;;;;;;5033900;28;20049;-94
2022/01/15 07:31:01;;;;;;;6.78;2.47;;;;;;;;;;5033483;28;20051;-93
2022/01/15 07:33:27;;;;;;;7.03;2.30;;;;;;;;;;5033853;28;20045;-93
2022/01/15 07:35:55;;;;;;;7.00;2.65;;;;;;;;;;5033738;28;20037;-92
2022/01/15 07:38:21;;;;;;;6.68;2.78;;;;;;;;;;5033747;28;20044;-93
2022/01/15 07:40:48;;;;;;;7.47;2.97;;;5.70;99.90;;;;;;5048991;22;20045;-67
2022/01/15 07:43:14;;;;;;;6.30;2.50;;;5.50;99.90;;;;;;5045020;28;20122;-67
2022/01/15 07:45:40;;;;;;;8.65;2.90;;;;;;;;;;5047798;28;20116;-67
2022/01/15 07:48:06;;;;;;;8.70;3.40;;;;;;;;;;5047108;28;20041;-67
2022/01/15 07:50:32;;;;;;;7.90;3.17;;;;;;;;;;5011111;28;20048;-67
2022/01/15 07:52:58;;;;;;;9.80;3.67;;;5.50;99.90;;;;;;5022105;28;20033;-66
2022/01/15 07:55:25;;;;;;;8.70;3.85;;;5.00;99.90;;;;;;4990695;28;20087;-66
2022/01/15 07:57:51;;;;;;;8.40;3.58;;;;;;;;;;5008349;28;20511;-68
2022/01/15 08:00:17;;;;;;;8.38;3.80;;;5.80;99.90;;;;;;5036038;28;20029;-66
2022/01/15 08:02:43;;;;;;;8.95;3.78;;;5.60;99.90;;;;;;5015128;28;20073;-66
2022/01/15 08:05:10;;;;;;;8.73;3.20;;;;;;;;;;5049598;28;20067;-66
2022/01/15 08:07:37;;;;;;;6.47;3.03;;;;;;;;;;5049869;28;20405;-68
2022/01/15 08:10:06;;;;;;;9.60;3.75;;;5.00;99.90;;;;;;5046612;28;20041;-67
2022/01/15 08:12:32;;;;;;;9.25;3.10;;;5.40;99.90;;;;;;5004758;28;20037;-67
2022/01/15 08:14:58;;;;;;;7.65;3.00;;;;;;;;;;5020095;28;20048;-67
2022/01/15 08:17:24;;;;;;;6.22;2.53;;;;;;;;;;5021849;28;20034;-67
2022/01/15 08:19:50;;;;;;;7.60;2.53;;;;;;;;;;5033107;28;20401;-67
2022/01/15 08:22:16;;;;;;;8.57;2.60;;;;;;;;;;5019580;28;20553;-67
2022/01/15 08:24:42;;;;;;;8.13;2.75;;;;;;;;;;5028460;28;20043;-67
2022/01/15 08:27:08;;;;;;;8.93;2.90;;;;;;;;;;5015542;28;20041;-67
2022/01/15 08:29:34;;;;;;;7.85;3.10;;;;;;;;;;5015477;28;20576;-67
2022/01/15 08:32:00;;;;;;;7.93;2.83;;;;;;;;;;5032688;28;20224;-66
2022/01/15 08:34:26;;;;;;;9.38;3.15;;;;;;;;;;5033093;28;20481;-67
2022/01/15 08:36:52;;;;;;;8.18;3.17;;;;;;;;;;5033496;28;20049;-66
2022/01/15 08:39:18;;;;;;;8.13;3.28;;;;;;;;;;5032902;28;20037;-67
2022/01/15 08:41:48;;;;;;;8.75;3.38;;;5.60;99.90;;;;;;5032333;28;20037;-67
2022/01/15 08:44:15;;;;;;;9.48;4.00;;;5.50;99.90;;;;;;5032978;28;20053;-67
2022/01/15 08:46:40;;;;;;;9.40;3.47;;;5.50;99.90;;;;;;5033084;28;20037;-67
2022/01/15 08:49:06;;;;;;;9.07;3.72;;;;;;;;;;5032643;28;20125;-66
2022/01/15 08:51:32;;;;;;;9.07;3.63;;;;;;;;;;5030667;28;20045;-66
2022/01/15 08:53:58;;;;;;;8.07;3.58;;;;;;;;;;5018871;28;20524;-67
2022/01/15 08:56:24;;;;;;;7.72;2.85;;;;;;;;;;5024165;28;20041;-67
2022/01/15 08:58:50;;;;;;;6.88;2.95;;;;;;;;;;5016291;28;20122;-67
2022/01/15 09:01:16;;;;;;;7.95;3.22;;;;;;;;;;5018992;28;20122;-66
2022/01/15 09:03:43;;;;;;;8.30;3.72;;;;;;;;;;5019134;28;20604;-67
2022/01/15 09:06:09;;;;;;;7.80;3.50;;;;;;;;;;5028560;28;20556;-67
2022/01/15 09:08:35;;;;;;;11.23;5.20;;;;;;;;;;5028512;28;20412;-67
2022/01/15 09:11:01;;;;;;;10.93;5.22;;;;;;;;;;5000114;28;20048;-67
2022/01/15 09:13:27;;;;;;;11.35;4.05;;;5.40;99.90;;;;;;5023229;28;20037;-67
2022/01/15 09:15:53;;;;;;;11.93;4.40;;;;;;;;;;5017134;28;20034;-66
2022/01/15 09:18:20;;;;;;;10.65;4.50;;;;;;;;;;5002008;28;20509;-66
2022/01/15 09:20:46;;;;;;;9.60;4.15;;;;;;;;;;5008865;28;20439;-67
2022/01/15 09:23:12;;;;;;;9.48;3.72;;;;;;;;;;5020042;28;20528;-67
2022/01/15 09:25:38;;;;;;;10.68;4.15;;;;;;;;;;5011907;28;20044;-67
2022/01/15 09:30:49;;;;;;;;;;;;;;;;;;5018133;28;20120;-67
2022/01/15 09:33:16;;;;;;;10.65;3.50;;;;;;;;;;5023192;28;20000;-67
2022/01/15 09:35:42;;;;;;;8.50;3.63;;;;;;;;;;4932190;28;20048;-67
2022/01/15 09:38:08;;;;;;;9.65;4.00;;;;;;;;;;4960812;28;20083;-67
2022/01/15 09:40:35;;;;;;;13.02;4.72;;;;;;;;;;4955182;28;20037;-67
2022/01/15 09:43:01;;;;;;;10.68;4.30;;;;;;;;;;4950708;28;20049;-66
2022/01/15 09:45:27;;;;;;;9.93;4.03;;;;;;;;;;5016086;28;20037;-67
2022/01/15 09:47:57;;;;;;;11.50;4.32;;;;;;;;;;5014918;28;20037;-67
2022/01/15 09:50:24;;;;;;;12.13;4.85;;;;;;;;;;5015252;28;20125;-66
2022/01/15 09:52:50;;;;;;;13.27;4.72;;;;;;;;;;5012602;28;20042;-66
2022/01/15 09:55:16;;;;;;;10.40;4.47;;;;;;;;;;5014115;28;20080;-67
2022/01/15 09:57:42;;;;;;;15.25;5.38;;;;;;;;;;5010887;28;20034;-66
2022/01/15 10:00:14;;;;;;;14.23;5.18;;;5.00;99.90;;;;;;5013893;28;20038;-66
2022/01/15 10:02:41;;;;;;;8.82;4.15;;;;;;;;;;5019020;28;20045;-67
2022/01/15 10:05:07;;;;;;;9.85;4.40;;;;;;;;;;5016973;28;20061;-67
2022/01/15 10:07:32;;;;;;;10.57;4.50;;;5.60;99.90;;;;;;4985682;28;20045;-67
2022/01/15 10:10:12;;;;;;;9.55;4.35;;;;;;;;;;5017628;28;20084;-67
2022/01/15 10:12:41;;;;;;;10.05;4.70;;;;;;;;;;5016232;28;20257;-67
2022/01/15 10:15:07;;;;;;;10.02;4.05;;;;;;;;;;5026720;28;20041;-66
2022/01/15 10:17:35;;;;;;;9.07;3.97;;;;;;;;;;5029085;28;20523;-66
2022/01/15 10:20:02;;;;;;;10.23;4.22;;;;;;;;;;5037345;28;20087;-67
2022/01/15 10:22:31;;;;;;;9.60;4.53;;;;;;;;;;5012268;28;20461;-66
2022/01/15 10:24:59;;;;;;;11.95;4.68;;;;;;;;;;5013505;28;20048;-67
2022/01/15 10:27:25;;;;;;;10.60;4.10;;;;;;;;;;5042510;28;20044;-67
2022/01/15 10:30:08;;;;;;;9.93;4.55;;;5.20;99.90;;;;;;5022165;28;20042;-67
2022/01/15 10:32:35;;;;;;;10.35;4.40;;;;;;;;;;5016221;28;20408;-67
2022/01/15 10:35:08;;;;;;;9.88;4.82;;;;;;;;;;5027218;28;20050;-68
2022/01/15 10:37:45;;;;;;;9.55;4.25;;;5.60;99.90;;;;;;5005365;28;20452;-67
2022/01/15 10:40:12;;;;;;;10.13;3.72;;;;;;;;;;5027892;28;20037;-67
2022/01/15 10:42:38;;;;;;;9.35;3.85;;;;;;;;;;5012718;28;20091;-67
2022/01/15 10:45:09;;;;;;;9.38;4.13;;;;;;;;;;5026030;28;20045;-66
2022/01/15 10:47:39;;;;;;;8.95;3.50;;;;;;;;;;5018792;28;20073;-66
2022/01/15 10:50:06;;;;;;;9.57;4.35;;;;;;;;;;5025490;28;20041;-67
2022/01/15 10:52:32;;;;;;;10.85;4.40;;;;;;;;;;5026094;28;20144;-67
2022/01/15 10:55:09;;;;;;;18.02;5.95;;;;;;;;;;5003995;28;20086;-67
2022/01/15 10:57:55;;;;;;;11.77;4.75;;;;;;;;;;5019283;28;20398;-67
2022/01/15 11:00:23;;;;;;;13.02;4.50;;;;;;;;;;5006611;28;20050;-66
2022/01/15 11:02:51;;;;;;;17.17;6.78;;;5.50;99.90;;;;;;5017616;28;20037;-67
2022/01/15 11:05:22;;;;;;;16.67;5.93;;;;;;;;;;5002501;28;20112;-67
2022/01/15 11:07:48;;;;;;;15.50;5.57;;;;;;;;;;5004270;28;20076;-66
2022/01/15 11:10:14;;;;;;;17.50;6.30;;;;;;;;;;5035020;28;20396;-67
2022/01/15 11:12:40;;;;;;;23.90;7.20;;;;;;;;;;5029607;28;20045;-66
2022/01/15 11:15:07;;;;;;;17.80;6.75;;;;;;;;;;5028234;28;20033;-67
2022/01/15 11:17:33;;;;;;;23.13;8.32;;;;;;;;;;5008300;28;20037;-66
2022/01/15 11:20:01;;;;;;;16.15;7.13;;;;;;;;;;5026426;28;20068;-66
2022/01/15 11:22:27;;;;;;;20.00;8.25;;;;;;;;;;5025070;28;20049;-67
2022/01/15 11:24:53;;;;;;;24.80;9.65;;;;;;;;;;5020400;28;20041;-67
2022/01/15 11:27:19;;;;;;;25.45;9.65;;;;;;;;;;5020358;28;20037;-66
2022/01/15 11:29:46;;;;;;;22.70;9.90;;;;;;;;;;5016098;28;20124;-67
2022/01/15 11:32:13;;;;;;;39.25;10.88;;;;;;;;;;5026150;28;20048;-67
2022/01/15 11:34:41;;;;;;;41.85;13.10;;;5.40;99.90;;;;;;5024313;28;20037;-66
2022/01/15 11:37:17;;;;;;;30.63;12.15;;;6.00;99.90;;;;;;5007562;28;20037;-66
2022/01/15 11:39:44;;;;;;;45.38;12.95;;;5.40;99.90;;;;;;5026558;28;20029;-66
2022/01/15 11:42:24;;;;;;;41.08;13.55;;;;;;;;;;5023144;28;20041;-67
2022/01/15 11:44:50;;;;;;;41.72;13.75;;;;;;;;;;5020766;28;20030;-67
2022/01/15 11:47:25;;;;;;;27.98;12.10;;;;;;;;;;5019481;28;20045;-67
2022/01/15 11:49:52;;;;;;;37.53;13.57;;;4.90;99.90;;;;;;5017115;28;20046;-66
2022/01/15 11:52:22;;;;;;;26.20;12.32;;;5.40;99.90;;;;;;5018464;28;20461;-67
2022/01/15 11:54:51;;;;;;;27.77;12.15;;;;;;;;;;5021045;28;20034;-67
2022/01/15 11:57:21;;;;;;;30.05;12.70;;;;;;;;;;5024170;28;20113;-67
2022/01/15 11:59:49;;;;;;;30.33;12.88;;;;;;;;;;5004667;28;20053;-67
2022/01/15 12:02:25;;;;;;;27.25;13.15;;;;;;;;;;5023594;28;20471;-67
2022/01/15 12:04:50;;;;;;;34.97;14.55;;;5.50;99.90;;;;;;5007201;28;20041;-67
2022/01/15 12:07:17;;;;;;;29.42;13.57;;;;;;;;;;5019294;28;20140;-66
2022/01/15 12:09:46;;;;;;;31.77;13.48;;;;;;;;;;4999107;28;20046;-67
2022/01/15 12:12:18;;;;;;;44.63;15.15;;;;;;;;;;5018894;28;20034;-67
2022/01/15 12:14:47;;;;;;;30.67;13.70;;;;;;;;;;5022895;28;20421;-67
2022/01/15 12:17:23;;;;;;;32.28;13.50;;;;;;;;;;5020364;28;20033;-67
2022/01/15 12:19:49;;;;;;;39.28;13.73;;;;;;;;;;5018686;28;20041;-67
2022/01/15 12:22:34;;;;;;;35.00;13.43;;;;;;;;;;5014977;28;20038;-67
2022/01/15 12:25:00;;;;;;;28.27;12.10;;;;;;;;;;5015112;28;20044;-67
2022/01/15 12:27:27;;;;;;;32.90;13.95;;;5.40;99.90;;;;;;5021528;28;20052;-67
2022/01/15 12:30:00;;;;;;;28.25;11.65;;;;;;;;;;5019640;28;20045;-67
2022/01/15 12:32:30;;;;;;;26.35;11.48;;;;;;;;;;5014371;28;20128;-67
2022/01/15 12:34:58;;;;;;;24.75;10.40;;;4.90;99.90;;;;;;5015425;28;20042;-67
2022/01/15 12:37:24;;;;;;;21.15;9.68;;;5.30;99.90;;;;;;5020904;28;20079;-67
2022/01/15 12:39:50;;;;;;;21.80;10.40;;;;;;;;;;5019656;28;20029;-67
2022/01/15 12:42:17;;;;;;;27.58;10.35;;;;;;;;;;4999694;28;20061;-67
2022/01/15 12:44:47;;;;;;;18.55;9.00;;;;;;;;;;4997451;28;20038;-66
2022/01/15 12:47:15;;;;;;;17.33;9.35;;;5.50;99.90;;;;;;5019391;28;20108;-67
2022/01/15 12:49:48;;;;;;;16.85;9.18;;;5.60;99.90;;;;;;5003379;28;20103;-67
2022/01/15 12:52:16;;;;;;;18.40;9.95;;;;;;;;;;5022014;28;20045;-67
2022/01/15 12:54:42;;;;;;;20.15;8.68;;;;;;;;;;5018939;28;20048;-67
2022/01/15 12:57:08;;;;;;;19.15;9.85;;;;;;;;;;5017119;28;20041;-67
2022/01/15 12:59:35;;;;;;;21.73;10.13;;;;;;;;;;4959567;28;20037;-67
2022/01/15 13:02:02;;;;;;;19.45;10.23;;;;;;;;;;4993083;28;20048;-67
2022/01/15 13:04:28;;;;;;;16.95;9.82;;;;;;;;;;4995264;28;20057;-65
2022/01/15 13:06:58;;;;;;;19.00;9.65;;;;;;;;;;5015568;28;20227;-65
2022/01/15 13:09:41;;;;;;;20.13;10.02;;;5.90;99.90;;;;;;5016685;28;20111;-65
2022/01/15 13:12:11;;;;;;;21.65;10.80;;;;;;;;;;5019045;28;20049;-66
2022/01/15 13:14:37;;;;;;;18.38;9.23;;;;;;;;;;5014132;28;20398;-66
2022/01/15 13:17:04;;;;;;;22.00;10.00;;;;;;;;;;5020070;28;20057;-65
2022/01/15 13:19:37;;;;;;;23.85;11.00;;;;;;;;;;5024223;28;20063;-67
